sensor_id;sensor_type;location;lat;lon;timestamp;P1;durP1;ratioP1;P2;durP2;ratioP2
59442;SDS011;45247;47.466;19.004;2024-03-22T00:01:00;29.55;;;14.98;;
59442;SDS011;45247;47.466;19.004;2024-03-22T00:03:28;27.35;;;14.10;;
59442;SDS011;45247;47.466;19.004;2024-03-22T00:05:55;29.80;;;12.93;;
59442;SDS011;45247;47.466;19.004;2024-03-22T00:08:22;24.13;;;12.88;;
59442;SDS011;45247;47.466;19.004;2024-03-22T00:10:48;28.38;;;14.25;;
59442;SDS011;45247;47.466;19.004;2024-03-22T00:13:15;27.77;;;13.35;;
59442;SDS011;45247;47.466;19.004;2024-03-22T00:15:41;36.10;;;15.05;;
59442;SDS011;45247;47.466;19.004;2024-03-22T00:18:11;28.88;;;13.05;;
59442;SDS011;45247;47.466;19.004;2024-03-22T00:20:37;26.65;;;14.55;;
59442;SDS011;45247;47.466;19.004;2024-03-22T00:23:04;25.50;;;13.38;;
59442;SDS011;45247;47.466;19.004;2024-03-22T00:25:31;31.83;;;14.50;;
59442;SDS011;45247;47.466;19.004;2024-03-22T00:27:58;28.95;;;13.77;;
59442;SDS011;45247;47.466;19.004;2024-03-22T00:30:24;30.38;;;13.95;;
59442;SDS011;45247;47.466;19.004;2024-03-22T00:32:51;26.63;;;12.65;;
59442;SDS011;45247;47.466;19.004;2024-03-22T00:35:19;26.70;;;13.20;;
59442;SDS011;45247;47.466;19.004;2024-03-22T00:37:46;26.83;;;13.50;;
59442;SDS011;45247;47.466;19.004;2024-03-22T00:40:12;30.08;;;14.70;;
59442;SDS011;45247;47.466;19.004;2024-03-22T00:42:40;28.25;;;14.35;;
59442;SDS011;45247;47.466;19.004;2024-03-22T00:45:06;30.35;;;14.35;;
59442;SDS011;45247;47.466;19.004;2024-03-22T00:47:33;28.25;;;13.45;;
59442;SDS011;45247;47.466;19.004;2024-03-22T00:50:00;26.60;;;13.55;;
59442;SDS011;45247;47.466;19.004;2024-03-22T00:52:29;27.38;;;13.43;;
59442;SDS011;45247;47.466;19.004;2024-03-22T00:54:55;29.38;;;15.13;;
59442;SDS011;45247;47.466;19.004;2024-03-22T00:57:22;30.65;;;14.38;;
59442;SDS011;45247;47.466;19.004;2024-03-22T00:59:48;27.27;;;14.57;;
59442;SDS011;45247;47.466;19.004;2024-03-22T01:02:15;29.85;;;15.68;;
59442;SDS011;45247;47.466;19.004;2024-03-22T01:04:42;32.55;;;16.38;;
59442;SDS011;45247;47.466;19.004;2024-03-22T01:07:09;32.63;;;15.88;;
59442;SDS011;45247;47.466;19.004;2024-03-22T01:09:36;30.95;;;14.30;;
59442;SDS011;45247;47.466;19.004;2024-03-22T01:12:04;29.83;;;14.63;;
59442;SDS011;45247;47.466;19.004;2024-03-22T01:14:31;29.30;;;14.18;;
59442;SDS011;45247;47.466;19.004;2024-03-22T01:16:58;26.35;;;12.75;;
59442;SDS011;45247;47.466;19.004;2024-03-22T01:19:24;27.88;;;12.30;;
59442;SDS011;45247;47.466;19.004;2024-03-22T01:21:52;30.20;;;11.38;;
59442;SDS011;45247;47.466;19.004;2024-03-22T01:24:18;27.13;;;11.02;;
59442;SDS011;45247;47.466;19.004;2024-03-22T01:26:46;29.15;;;10.93;;
59442;SDS011;45247;47.466;19.004;2024-03-22T01:29:13;21.30;;;10.80;;
59442;SDS011;45247;47.466;19.004;2024-03-22T01:31:40;20.25;;;9.43;;
59442;SDS011;45247;47.466;19.004;2024-03-22T01:34:07;21.20;;;9.00;;
59442;SDS011;45247;47.466;19.004;2024-03-22T01:36:34;23.23;;;9.68;;
59442;SDS011;45247;47.466;19.004;2024-03-22T01:39:01;28.17;;;10.70;;
59442;SDS011;45247;47.466;19.004;2024-03-22T01:41:28;27.77;;;9.80;;
59442;SDS011;45247;47.466;19.004;2024-03-22T01:43:55;31.55;;;10.90;;
59442;SDS011;45247;47.466;19.004;2024-03-22T01:46:22;24.83;;;10.07;;
59442;SDS011;45247;47.466;19.004;2024-03-22T01:48:49;22.73;;;10.63;;
59442;SDS011;45247;47.466;19.004;2024-03-22T01:51:16;24.20;;;11.52;;
59442;SDS011;45247;47.466;19.004;2024-03-22T01:53:43;23.40;;;11.25;;
59442;SDS011;45247;47.466;19.004;2024-03-22T01:56:11;25.08;;;12.63;;
59442;SDS011;45247;47.466;19.004;2024-03-22T01:58:37;25.50;;;12.07;;
59442;SDS011;45247;47.466;19.004;2024-03-22T02:01:05;28.15;;;13.15;;
59442;SDS011;45247;47.466;19.004;2024-03-22T02:03:31;28.63;;;14.32;;
59442;SDS011;45247;47.466;19.004;2024-03-22T02:05:58;29.50;;;13.55;;
59442;SDS011;45247;47.466;19.004;2024-03-22T02:08:24;27.42;;;13.82;;
59442;SDS011;45247;47.466;19.004;2024-03-22T02:10:52;28.33;;;13.27;;
59442;SDS011;45247;47.466;19.004;2024-03-22T02:13:18;22.88;;;11.45;;
59442;SDS011;45247;47.466;19.004;2024-03-22T02:15:45;21.75;;;11.43;;
59442;SDS011;45247;47.466;19.004;2024-03-22T02:18:12;25.13;;;11.27;;
59442;SDS011;45247;47.466;19.004;2024-03-22T02:20:40;25.80;;;12.02;;
59442;SDS011;45247;47.466;19.004;2024-03-22T02:23:06;26.48;;;11.63;;
59442;SDS011;45247;47.466;19.004;2024-03-22T02:25:35;22.00;;;10.52;;
59442;SDS011;45247;47.466;19.004;2024-03-22T02:28:01;26.10;;;12.88;;
59442;SDS011;45247;47.466;19.004;2024-03-22T02:30:28;28.10;;;13.88;;
59442;SDS011;45247;47.466;19.004;2024-03-22T02:32:54;25.33;;;13.07;;
59442;SDS011;45247;47.466;19.004;2024-03-22T02:35:21;25.27;;;11.70;;
59442;SDS011;45247;47.466;19.004;2024-03-22T02:37:47;29.10;;;13.65;;
59442;SDS011;45247;47.466;19.004;2024-03-22T02:40:15;32.95;;;12.25;;
59442;SDS011;45247;47.466;19.004;2024-03-22T02:42:43;32.03;;;13.38;;
59442;SDS011;45247;47.466;19.004;2024-03-22T02:45:10;29.65;;;12.02;;
59442;SDS011;45247;47.466;19.004;2024-03-22T02:47:36;27.42;;;12.68;;
59442;SDS011;45247;47.466;19.004;2024-03-22T02:50:04;25.17;;;11.45;;
59442;SDS011;45247;47.466;19.004;2024-03-22T02:52:31;27.23;;;12.45;;
59442;SDS011;45247;47.466;19.004;2024-03-22T02:54:58;26.13;;;12.55;;
59442;SDS011;45247;47.466;19.004;2024-03-22T02:57:24;30.45;;;12.45;;
59442;SDS011;45247;47.466;19.004;2024-03-22T02:59:53;26.65;;;13.45;;
59442;SDS011;45247;47.466;19.004;2024-03-22T03:02:19;22.55;;;11.50;;
59442;SDS011;45247;47.466;19.004;2024-03-22T03:04:46;24.90;;;12.60;;
59442;SDS011;45247;47.466;19.004;2024-03-22T03:07:12;22.48;;;11.70;;
59442;SDS011;45247;47.466;19.004;2024-03-22T03:09:40;28.65;;;13.73;;
59442;SDS011;45247;47.466;19.004;2024-03-22T03:12:07;26.02;;;12.15;;
59442;SDS011;45247;47.466;19.004;2024-03-22T03:14:34;25.27;;;11.85;;
59442;SDS011;45247;47.466;19.004;2024-03-22T03:17:02;26.83;;;13.32;;
59442;SDS011;45247;47.466;19.004;2024-03-22T03:19:30;25.92;;;13.27;;
59442;SDS011;45247;47.466;19.004;2024-03-22T03:21:57;28.92;;;13.27;;
59442;SDS011;45247;47.466;19.004;2024-03-22T03:24:24;24.73;;;13.25;;
59442;SDS011;45247;47.466;19.004;2024-03-22T03:26:50;26.55;;;13.02;;
59442;SDS011;45247;47.466;19.004;2024-03-22T03:29:17;22.42;;;11.68;;
59442;SDS011;45247;47.466;19.004;2024-03-22T03:31:43;27.42;;;13.23;;
59442;SDS011;45247;47.466;19.004;2024-03-22T03:34:12;26.77;;;11.90;;
59442;SDS011;45247;47.466;19.004;2024-03-22T03:36:38;28.00;;;13.88;;
59442;SDS011;45247;47.466;19.004;2024-03-22T03:39:05;25.58;;;13.50;;
59442;SDS011;45247;47.466;19.004;2024-03-22T03:41:31;24.20;;;13.23;;
59442;SDS011;45247;47.466;19.004;2024-03-22T03:43:59;18.33;;;10.88;;
59442;SDS011;45247;47.466;19.004;2024-03-22T03:46:25;21.40;;;11.50;;
59442;SDS011;45247;47.466;19.004;2024-03-22T03:48:52;25.05;;;12.70;;
59442;SDS011;45247;47.466;19.004;2024-03-22T03:51:19;22.45;;;12.52;;
59442;SDS011;45247;47.466;19.004;2024-03-22T03:53:47;22.48;;;11.18;;
59442;SDS011;45247;47.466;19.004;2024-03-22T03:56:13;23.80;;;13.45;;
59442;SDS011;45247;47.466;19.004;2024-03-22T03:58:40;29.17;;;14.18;;
59442;SDS011;45247;47.466;19.004;2024-03-22T04:01:07;22.40;;;12.90;;
59442;SDS011;45247;47.466;19.004;2024-03-22T04:03:35;21.92;;;13.05;;
59442;SDS011;45247;47.466;19.004;2024-03-22T04:06:01;26.30;;;14.05;;
59442;SDS011;45247;47.466;19.004;2024-03-22T04:08:30;21.38;;;11.98;;
59442;SDS011;45247;47.466;19.004;2024-03-22T04:10:59;24.73;;;13.57;;
59442;SDS011;45247;47.466;19.004;2024-03-22T04:13:27;20.30;;;11.48;;
59442;SDS011;45247;47.466;19.004;2024-03-22T04:15:53;18.73;;;10.88;;
59442;SDS011;45247;47.466;19.004;2024-03-22T04:18:21;23.25;;;12.32;;
59442;SDS011;45247;47.466;19.004;2024-03-22T04:20:52;23.52;;;12.27;;
59442;SDS011;45247;47.466;19.004;2024-03-22T04:23:20;24.42;;;12.38;;
59442;SDS011;45247;47.466;19.004;2024-03-22T04:25:52;20.08;;;11.77;;
59442;SDS011;45247;47.466;19.004;2024-03-22T04:28:20;19.05;;;11.43;;
59442;SDS011;45247;47.466;19.004;2024-03-22T04:30:54;21.13;;;11.38;;
59442;SDS011;45247;47.466;19.004;2024-03-22T04:33:22;21.08;;;12.05;;
59442;SDS011;45247;47.466;19.004;2024-03-22T04:35:48;23.25;;;13.13;;
59442;SDS011;45247;47.466;19.004;2024-03-22T04:38:16;19.92;;;11.52;;
59442;SDS011;45247;47.466;19.004;2024-03-22T04:40:43;25.33;;;13.10;;
59442;SDS011;45247;47.466;19.004;2024-03-22T04:43:12;23.58;;;13.05;;
59442;SDS011;45247;47.466;19.004;2024-03-22T04:45:39;20.52;;;11.95;;
59442;SDS011;45247;47.466;19.004;2024-03-22T04:48:09;24.85;;;13.18;;
59442;SDS011;45247;47.466;19.004;2024-03-22T04:50:36;19.48;;;11.68;;
59442;SDS011;45247;47.466;19.004;2024-03-22T04:53:03;15.60;;;10.30;;
59442;SDS011;45247;47.466;19.004;2024-03-22T04:55:30;24.63;;;12.07;;
59442;SDS011;45247;47.466;19.004;2024-03-22T04:57:58;24.02;;;13.90;;
59442;SDS011;45247;47.466;19.004;2024-03-22T05:00:26;26.77;;;13.60;;
59442;SDS011;45247;47.466;19.004;2024-03-22T05:02:54;21.70;;;13.05;;
59442;SDS011;45247;47.466;19.004;2024-03-22T05:05:38;27.23;;;14.82;;
59442;SDS011;45247;47.466;19.004;2024-03-22T05:08:06;28.30;;;15.07;;
59442;SDS011;45247;47.466;19.004;2024-03-22T05:10:33;23.90;;;13.70;;
59442;SDS011;45247;47.466;19.004;2024-03-22T05:13:00;23.92;;;13.57;;
59442;SDS011;45247;47.466;19.004;2024-03-22T05:15:28;25.63;;;15.15;;
59442;SDS011;45247;47.466;19.004;2024-03-22T05:17:56;30.35;;;14.75;;
59442;SDS011;45247;47.466;19.004;2024-03-22T05:20:23;23.05;;;12.73;;
59442;SDS011;45247;47.466;19.004;2024-03-22T05:22:50;26.08;;;13.98;;
59442;SDS011;45247;47.466;19.004;2024-03-22T05:25:16;26.55;;;14.82;;
59442;SDS011;45247;47.466;19.004;2024-03-22T05:27:44;22.77;;;13.20;;
59442;SDS011;45247;47.466;19.004;2024-03-22T05:30:13;22.73;;;13.20;;
59442;SDS011;45247;47.466;19.004;2024-03-22T05:32:42;26.38;;;13.88;;
59442;SDS011;45247;47.466;19.004;2024-03-22T05:35:08;22.38;;;13.90;;
59442;SDS011;45247;47.466;19.004;2024-03-22T05:37:36;20.23;;;12.38;;
59442;SDS011;45247;47.466;19.004;2024-03-22T05:40:02;26.50;;;13.40;;
59442;SDS011;45247;47.466;19.004;2024-03-22T05:42:30;28.05;;;13.63;;
59442;SDS011;45247;47.466;19.004;2024-03-22T05:44:57;24.15;;;13.07;;
59442;SDS011;45247;47.466;19.004;2024-03-22T05:47:23;22.67;;;12.75;;
59442;SDS011;45247;47.466;19.004;2024-03-22T05:49:53;22.17;;;12.98;;
59442;SDS011;45247;47.466;19.004;2024-03-22T05:52:19;21.58;;;12.45;;
59442;SDS011;45247;47.466;19.004;2024-03-22T05:54:46;25.95;;;13.20;;
59442;SDS011;45247;47.466;19.004;2024-03-22T05:57:13;22.98;;;12.88;;
59442;SDS011;45247;47.466;19.004;2024-03-22T05:59:40;20.10;;;12.77;;
59442;SDS011;45247;47.466;19.004;2024-03-22T06:02:07;20.30;;;11.82;;
59442;SDS011;45247;47.466;19.004;2024-03-22T06:04:34;25.13;;;12.20;;
59442;SDS011;45247;47.466;19.004;2024-03-22T06:07:03;22.77;;;13.40;;
59442;SDS011;45247;47.466;19.004;2024-03-22T06:09:31;20.15;;;12.18;;
59442;SDS011;45247;47.466;19.004;2024-03-22T06:12:03;22.40;;;13.30;;
59442;SDS011;45247;47.466;19.004;2024-03-22T06:14:31;22.63;;;13.13;;
59442;SDS011;45247;47.466;19.004;2024-03-22T06:16:57;21.23;;;12.38;;
59442;SDS011;45247;47.466;19.004;2024-03-22T06:19:25;28.17;;;14.18;;
59442;SDS011;45247;47.466;19.004;2024-03-22T06:21:51;19.40;;;11.63;;
59442;SDS011;45247;47.466;19.004;2024-03-22T06:24:20;23.33;;;13.30;;
59442;SDS011;45247;47.466;19.004;2024-03-22T06:26:46;21.48;;;13.15;;
59442;SDS011;45247;47.466;19.004;2024-03-22T06:29:14;20.00;;;12.30;;
59442;SDS011;45247;47.466;19.004;2024-03-22T06:31:41;23.35;;;13.43;;
59442;SDS011;45247;47.466;19.004;2024-03-22T06:34:09;21.40;;;12.35;;
59442;SDS011;45247;47.466;19.004;2024-03-22T06:36:35;20.67;;;12.00;;
59442;SDS011;45247;47.466;19.004;2024-03-22T06:39:02;22.02;;;12.25;;
59442;SDS011;45247;47.466;19.004;2024-03-22T06:41:31;20.80;;;12.50;;
59442;SDS011;45247;47.466;19.004;2024-03-22T06:43:59;22.45;;;12.18;;
59442;SDS011;45247;47.466;19.004;2024-03-22T06:46:25;21.95;;;12.90;;
59442;SDS011;45247;47.466;19.004;2024-03-22T06:48:52;26.67;;;12.82;;
59442;SDS011;45247;47.466;19.004;2024-03-22T06:51:19;22.77;;;13.32;;
59442;SDS011;45247;47.466;19.004;2024-03-22T06:53:45;30.42;;;14.00;;
59442;SDS011;45247;47.466;19.004;2024-03-22T06:56:13;28.05;;;13.43;;
59442;SDS011;45247;47.466;19.004;2024-03-22T06:58:41;23.13;;;13.57;;
59442;SDS011;45247;47.466;19.004;2024-03-22T07:01:07;21.60;;;12.30;;
59442;SDS011;45247;47.466;19.004;2024-03-22T07:03:35;22.67;;;12.98;;
59442;SDS011;45247;47.466;19.004;2024-03-22T07:06:01;23.35;;;14.45;;
59442;SDS011;45247;47.466;19.004;2024-03-22T07:08:28;22.83;;;14.20;;
59442;SDS011;45247;47.466;19.004;2024-03-22T07:10:54;22.70;;;13.00;;
59442;SDS011;45247;47.466;19.004;2024-03-22T07:13:21;19.63;;;12.25;;
59442;SDS011;45247;47.466;19.004;2024-03-22T07:15:49;24.67;;;12.23;;
59442;SDS011;45247;47.466;19.004;2024-03-22T07:18:16;20.30;;;13.07;;
59442;SDS011;45247;47.466;19.004;2024-03-22T07:20:42;20.55;;;12.13;;
59442;SDS011;45247;47.466;19.004;2024-03-22T07:23:09;23.05;;;13.02;;
59442;SDS011;45247;47.466;19.004;2024-03-22T07:25:36;20.30;;;12.32;;
59442;SDS011;45247;47.466;19.004;2024-03-22T07:28:03;21.10;;;12.10;;
59442;SDS011;45247;47.466;19.004;2024-03-22T07:30:29;20.95;;;12.25;;
59442;SDS011;45247;47.466;19.004;2024-03-22T07:32:58;21.65;;;12.25;;
59442;SDS011;45247;47.466;19.004;2024-03-22T07:35:24;20.30;;;12.25;;
59442;SDS011;45247;47.466;19.004;2024-03-22T07:37:51;19.15;;;11.77;;
59442;SDS011;45247;47.466;19.004;2024-03-22T07:40:17;24.73;;;13.80;;
59442;SDS011;45247;47.466;19.004;2024-03-22T07:42:45;27.40;;;13.40;;
59442;SDS011;45247;47.466;19.004;2024-03-22T07:45:11;22.27;;;13.48;;
59442;SDS011;45247;47.466;19.004;2024-03-22T07:47:38;22.90;;;12.20;;
59442;SDS011;45247;47.466;19.004;2024-03-22T07:50:09;26.35;;;14.30;;
59442;SDS011;45247;47.466;19.004;2024-03-22T07:52:37;25.15;;;13.57;;
59442;SDS011;45247;47.466;19.004;2024-03-22T07:55:04;20.00;;;12.15;;
59442;SDS011;45247;47.466;19.004;2024-03-22T07:57:31;23.23;;;12.30;;
59442;SDS011;45247;47.466;19.004;2024-03-22T07:59:57;24.05;;;13.15;;
59442;SDS011;45247;47.466;19.004;2024-03-22T08:02:24;23.85;;;12.40;;
59442;SDS011;45247;47.466;19.004;2024-03-22T08:04:50;24.23;;;12.52;;
59442;SDS011;45247;47.466;19.004;2024-03-22T08:07:19;21.15;;;13.05;;
59442;SDS011;45247;47.466;19.004;2024-03-22T08:09:46;19.23;;;12.50;;
59442;SDS011;45247;47.466;19.004;2024-03-22T08:12:13;21.50;;;13.20;;
59442;SDS011;45247;47.466;19.004;2024-03-22T08:14:39;20.52;;;13.15;;
59442;SDS011;45247;47.466;19.004;2024-03-22T08:17:06;18.45;;;12.13;;
59442;SDS011;45247;47.466;19.004;2024-03-22T08:19:34;21.77;;;13.00;;
59442;SDS011;45247;47.466;19.004;2024-03-22T08:22:01;22.40;;;13.52;;
59442;SDS011;45247;47.466;19.004;2024-03-22T08:24:29;20.80;;;11.93;;
59442;SDS011;45247;47.466;19.004;2024-03-22T08:26:56;22.35;;;13.05;;
59442;SDS011;45247;47.466;19.004;2024-03-22T08:29:22;21.50;;;12.30;;
59442;SDS011;45247;47.466;19.004;2024-03-22T08:31:50;20.35;;;12.10;;
59442;SDS011;45247;47.466;19.004;2024-03-22T08:34:16;17.05;;;10.98;;
59442;SDS011;45247;47.466;19.004;2024-03-22T08:36:43;21.52;;;12.70;;
59442;SDS011;45247;47.466;19.004;2024-03-22T08:39:09;24.23;;;11.95;;
59442;SDS011;45247;47.466;19.004;2024-03-22T08:41:38;24.38;;;12.23;;
59442;SDS011;45247;47.466;19.004;2024-03-22T08:44:04;20.65;;;11.88;;
59442;SDS011;45247;47.466;19.004;2024-03-22T08:46:32;22.02;;;13.07;;
59442;SDS011;45247;47.466;19.004;2024-03-22T08:48:58;23.13;;;12.88;;
59442;SDS011;45247;47.466;19.004;2024-03-22T08:51:26;20.65;;;13.38;;
59442;SDS011;45247;47.466;19.004;2024-03-22T08:53:52;18.48;;;11.07;;
59442;SDS011;45247;47.466;19.004;2024-03-22T08:56:19;19.02;;;12.52;;
59442;SDS011;45247;47.466;19.004;2024-03-22T08:58:47;21.70;;;12.57;;
59442;SDS011;45247;47.466;19.004;2024-03-22T09:01:15;20.33;;;12.18;;
59442;SDS011;45247;47.466;19.004;2024-03-22T09:03:41;19.75;;;12.90;;
59442;SDS011;45247;47.466;19.004;2024-03-22T09:06:11;28.20;;;13.75;;
59442;SDS011;45247;47.466;19.004;2024-03-22T09:08:39;18.05;;;11.52;;
59442;SDS011;45247;47.466;19.004;2024-03-22T09:11:07;27.20;;;12.48;;
59442;SDS011;45247;47.466;19.004;2024-03-22T09:13:33;18.80;;;12.40;;
59442;SDS011;45247;47.466;19.004;2024-03-22T09:16:03;15.60;;;10.80;;
59442;SDS011;45247;47.466;19.004;2024-03-22T09:18:31;16.65;;;10.05;;
59442;SDS011;45247;47.466;19.004;2024-03-22T09:20:58;18.02;;;10.80;;
59442;SDS011;45247;47.466;19.004;2024-03-22T09:23:28;17.17;;;10.98;;
59442;SDS011;45247;47.466;19.004;2024-03-22T09:25:55;18.95;;;10.85;;
59442;SDS011;45247;47.466;19.004;2024-03-22T09:28:21;19.55;;;11.40;;
59442;SDS011;45247;47.466;19.004;2024-03-22T09:30:51;16.55;;;10.65;;
59442;SDS011;45247;47.466;19.004;2024-03-22T09:33:19;19.27;;;12.00;;
59442;SDS011;45247;47.466;19.004;2024-03-22T09:35:46;16.20;;;10.65;;
59442;SDS011;45247;47.466;19.004;2024-03-22T09:38:13;17.73;;;11.20;;
59442;SDS011;45247;47.466;19.004;2024-03-22T09:40:40;17.73;;;11.20;;
59442;SDS011;45247;47.466;19.004;2024-03-22T09:43:07;17.90;;;10.98;;
59442;SDS011;45247;47.466;19.004;2024-03-22T09:45:36;17.13;;;11.10;;
59442;SDS011;45247;47.466;19.004;2024-03-22T09:48:03;13.88;;;10.52;;
59442;SDS011;45247;47.466;19.004;2024-03-22T09:50:32;12.68;;;9.02;;
59442;SDS011;45247;47.466;19.004;2024-03-22T09:53:00;13.98;;;9.23;;
59442;SDS011;45247;47.466;19.004;2024-03-22T09:55:30;16.92;;;9.10;;
59442;SDS011;45247;47.466;19.004;2024-03-22T09:57:57;13.68;;;9.25;;
59442;SDS011;45247;47.466;19.004;2024-03-22T10:00:25;13.52;;;9.20;;
59442;SDS011;45247;47.466;19.004;2024-03-22T10:02:51;16.08;;;9.75;;
59442;SDS011;45247;47.466;19.004;2024-03-22T10:05:19;13.98;;;9.15;;
59442;SDS011;45247;47.466;19.004;2024-03-22T10:07:47;15.13;;;10.45;;
59442;SDS011;45247;47.466;19.004;2024-03-22T10:10:14;15.23;;;10.65;;
59442;SDS011;45247;47.466;19.004;2024-03-22T10:12:41;17.25;;;11.13;;
59442;SDS011;45247;47.466;19.004;2024-03-22T10:15:08;13.13;;;10.02;;
59442;SDS011;45247;47.466;19.004;2024-03-22T10:17:35;13.18;;;9.57;;
59442;SDS011;45247;47.466;19.004;2024-03-22T10:20:03;17.08;;;9.88;;
59442;SDS011;45247;47.466;19.004;2024-03-22T10:22:32;16.30;;;9.18;;
59442;SDS011;45247;47.466;19.004;2024-03-22T10:25:00;11.90;;;8.82;;
59442;SDS011;45247;47.466;19.004;2024-03-22T10:27:27;13.90;;;9.15;;
59442;SDS011;45247;47.466;19.004;2024-03-22T10:29:54;19.60;;;9.85;;
59442;SDS011;45247;47.466;19.004;2024-03-22T10:32:21;16.67;;;9.80;;
59442;SDS011;45247;47.466;19.004;2024-03-22T10:34:50;15.90;;;9.70;;
59442;SDS011;45247;47.466;19.004;2024-03-22T10:37:16;12.52;;;9.23;;
59442;SDS011;45247;47.466;19.004;2024-03-22T10:39:44;13.20;;;8.23;;
59442;SDS011;45247;47.466;19.004;2024-03-22T10:42:17;15.88;;;8.80;;
59442;SDS011;45247;47.466;19.004;2024-03-22T10:44:44;14.50;;;8.45;;
59442;SDS011;45247;47.466;19.004;2024-03-22T10:47:10;11.35;;;8.18;;
59442;SDS011;45247;47.466;19.004;2024-03-22T10:49:41;13.70;;;8.88;;
59442;SDS011;45247;47.466;19.004;2024-03-22T10:52:09;15.77;;;11.02;;
59442;SDS011;45247;47.466;19.004;2024-03-22T10:54:39;16.27;;;10.73;;
59442;SDS011;45247;47.466;19.004;2024-03-22T10:57:11;15.18;;;11.00;;
59442;SDS011;45247;47.466;19.004;2024-03-22T10:59:42;16.07;;;11.27;;
59442;SDS011;45247;47.466;19.004;2024-03-22T11:02:10;17.35;;;13.02;;
59442;SDS011;45247;47.466;19.004;2024-03-22T11:04:37;17.40;;;11.50;;
59442;SDS011;45247;47.466;19.004;2024-03-22T11:07:03;17.58;;;11.30;;
59442;SDS011;45247;47.466;19.004;2024-03-22T11:09:31;14.50;;;9.55;;
59442;SDS011;45247;47.466;19.004;2024-03-22T11:11:57;14.50;;;9.88;;
59442;SDS011;45247;47.466;19.004;2024-03-22T11:14:25;15.85;;;9.52;;
59442;SDS011;45247;47.466;19.004;2024-03-22T11:16:53;14.93;;;8.60;;
59442;SDS011;45247;47.466;19.004;2024-03-22T11:19:21;16.42;;;10.10;;
59442;SDS011;45247;47.466;19.004;2024-03-22T11:21:47;15.00;;;9.00;;
59442;SDS011;45247;47.466;19.004;2024-03-22T11:24:15;13.13;;;9.43;;
59442;SDS011;45247;47.466;19.004;2024-03-22T11:26:41;11.68;;;8.23;;
59442;SDS011;45247;47.466;19.004;2024-03-22T11:29:09;12.65;;;8.57;;
59442;SDS011;45247;47.466;19.004;2024-03-22T11:31:36;12.20;;;7.22;;
59442;SDS011;45247;47.466;19.004;2024-03-22T11:34:04;8.20;;;5.60;;
59442;SDS011;45247;47.466;19.004;2024-03-22T11:36:31;13.75;;;5.68;;
59442;SDS011;45247;47.466;19.004;2024-03-22T11:38:59;10.13;;;5.90;;
59442;SDS011;45247;47.466;19.004;2024-03-22T11:41:26;13.73;;;7.38;;
59442;SDS011;45247;47.466;19.004;2024-03-22T11:43:55;11.57;;;6.35;;
59442;SDS011;45247;47.466;19.004;2024-03-22T11:46:23;9.45;;;5.55;;
59442;SDS011;45247;47.466;19.004;2024-03-22T11:48:51;11.43;;;6.95;;
59442;SDS011;45247;47.466;19.004;2024-03-22T11:51:19;9.45;;;6.30;;
59442;SDS011;45247;47.466;19.004;2024-03-22T11:53:49;9.10;;;5.15;;
59442;SDS011;45247;47.466;19.004;2024-03-22T11:56:17;11.15;;;6.05;;
59442;SDS011;45247;47.466;19.004;2024-03-22T11:58:48;10.65;;;5.53;;
59442;SDS011;45247;47.466;19.004;2024-03-22T12:01:15;12.45;;;7.30;;
59442;SDS011;45247;47.466;19.004;2024-03-22T12:03:46;13.55;;;8.38;;
59442;SDS011;45247;47.466;19.004;2024-03-22T12:06:15;10.80;;;7.00;;
59442;SDS011;45247;47.466;19.004;2024-03-22T12:08:43;13.35;;;9.20;;
59442;SDS011;45247;47.466;19.004;2024-03-22T12:11:16;16.75;;;9.07;;
59442;SDS011;45247;47.466;19.004;2024-03-22T12:13:43;15.02;;;9.20;;
59442;SDS011;45247;47.466;19.004;2024-03-22T12:16:12;11.07;;;7.68;;
59442;SDS011;45247;47.466;19.004;2024-03-22T12:18:39;11.77;;;8.73;;
59442;SDS011;45247;47.466;19.004;2024-03-22T12:21:05;14.23;;;8.25;;
59442;SDS011;45247;47.466;19.004;2024-03-22T12:23:33;11.38;;;7.85;;
59442;SDS011;45247;47.466;19.004;2024-03-22T12:26:01;11.80;;;7.93;;
59442;SDS011;45247;47.466;19.004;2024-03-22T12:28:29;11.05;;;7.80;;
59442;SDS011;45247;47.466;19.004;2024-03-22T12:30:55;15.82;;;10.30;;
59442;SDS011;45247;47.466;19.004;2024-03-22T12:33:23;13.15;;;8.40;;
59442;SDS011;45247;47.466;19.004;2024-03-22T12:35:49;13.45;;;9.73;;
59442;SDS011;45247;47.466;19.004;2024-03-22T12:38:16;14.75;;;9.98;;
59442;SDS011;45247;47.466;19.004;2024-03-22T12:40:43;15.40;;;9.45;;
59442;SDS011;45247;47.466;19.004;2024-03-22T12:43:12;14.10;;;9.63;;
59442;SDS011;45247;47.466;19.004;2024-03-22T12:45:38;13.50;;;9.90;;
59442;SDS011;45247;47.466;19.004;2024-03-22T12:48:05;13.45;;;8.77;;
59442;SDS011;45247;47.466;19.004;2024-03-22T12:50:31;12.32;;;9.05;;
59442;SDS011;45247;47.466;19.004;2024-03-22T12:52:58;14.18;;;8.85;;
59442;SDS011;45247;47.466;19.004;2024-03-22T12:55:24;15.93;;;9.02;;
59442;SDS011;45247;47.466;19.004;2024-03-22T12:57:53;12.50;;;8.75;;
59442;SDS011;45247;47.466;19.004;2024-03-22T13:00:21;16.05;;;9.02;;
59442;SDS011;45247;47.466;19.004;2024-03-22T13:02:48;12.05;;;8.88;;
59442;SDS011;45247;47.466;19.004;2024-03-22T13:05:14;11.98;;;9.13;;
59442;SDS011;45247;47.466;19.004;2024-03-22T13:07:42;14.27;;;9.68;;
59442;SDS011;45247;47.466;19.004;2024-03-22T13:10:08;14.88;;;9.57;;
59442;SDS011;45247;47.466;19.004;2024-03-22T13:12:36;13.60;;;9.98;;
59442;SDS011;45247;47.466;19.004;2024-03-22T13:15:03;15.13;;;9.27;;
59442;SDS011;45247;47.466;19.004;2024-03-22T13:17:33;14.18;;;9.40;;
59442;SDS011;45247;47.466;19.004;2024-03-22T13:19:59;15.25;;;10.38;;
59442;SDS011;45247;47.466;19.004;2024-03-22T13:22:26;14.93;;;10.57;;
59442;SDS011;45247;47.466;19.004;2024-03-22T13:24:52;16.50;;;10.43;;
59442;SDS011;45247;47.466;19.004;2024-03-22T13:27:20;14.80;;;9.98;;
59442;SDS011;45247;47.466;19.004;2024-03-22T13:29:48;17.02;;;9.95;;
59442;SDS011;45247;47.466;19.004;2024-03-22T13:32:18;15.27;;;10.43;;
59442;SDS011;45247;47.466;19.004;2024-03-22T13:34:51;19.50;;;11.07;;
59442;SDS011;45247;47.466;19.004;2024-03-22T13:37:19;16.42;;;11.40;;
59442;SDS011;45247;47.466;19.004;2024-03-22T13:39:47;13.93;;;10.73;;
59442;SDS011;45247;47.466;19.004;2024-03-22T13:42:15;13.95;;;10.70;;
59442;SDS011;45247;47.466;19.004;2024-03-22T13:44:44;15.50;;;10.55;;
59442;SDS011;45247;47.466;19.004;2024-03-22T13:47:12;13.38;;;9.45;;
59442;SDS011;45247;47.466;19.004;2024-03-22T13:49:38;14.13;;;7.68;;
59442;SDS011;45247;47.466;19.004;2024-03-22T13:52:08;11.20;;;7.63;;
59442;SDS011;45247;47.466;19.004;2024-03-22T13:54:35;11.73;;;8.20;;
59442;SDS011;45247;47.466;19.004;2024-03-22T13:57:02;14.88;;;8.48;;
59442;SDS011;45247;47.466;19.004;2024-03-22T13:59:28;10.48;;;7.88;;
59442;SDS011;45247;47.466;19.004;2024-03-22T14:01:56;12.13;;;7.45;;
59442;SDS011;45247;47.466;19.004;2024-03-22T14:04:22;16.30;;;7.63;;
59442;SDS011;45247;47.466;19.004;2024-03-22T14:06:51;12.23;;;7.55;;
59442;SDS011;45247;47.466;19.004;2024-03-22T14:09:19;9.73;;;6.85;;
59442;SDS011;45247;47.466;19.004;2024-03-22T14:11:46;12.75;;;7.47;;
59442;SDS011;45247;47.466;19.004;2024-03-22T14:14:17;12.73;;;7.95;;